createdAt,value
2022-10-05T00:02:17.420Z,12.81
2022-10-05T00:07:23.249Z,12.84
2022-10-05T00:12:29.990Z,12.83
2022-10-05T00:17:33.441Z,12.87
2022-10-05T00:22:36.557Z,12.83
2022-10-05T00:27:39.964Z,12.83
2022-10-05T00:32:44.626Z,12.83
2022-10-05T00:37:53.568Z,12.90
2022-10-05T00:43:16.080Z,12.68
2022-10-05T00:48:37.744Z,12.46
2022-10-05T00:54:18.036Z,12.27
2022-10-05T00:59:40.408Z,12.16
2022-10-05T01:05:17.025Z,12.18
2022-10-05T01:10:20.063Z,12.15
2022-10-05T01:15:35.808Z,12.07
2022-10-05T01:21:01.938Z,11.96
2022-10-05T01:26:20.506Z,11.81
2022-10-05T01:31:29.182Z,11.85
2022-10-05T01:36:52.405Z,11.81
2022-10-05T01:42:30.422Z,11.72
2022-10-05T01:47:45.387Z,11.64
2022-10-05T01:53:29.535Z,11.48
2022-10-05T01:58:42.344Z,11.36
2022-10-05T02:03:57.064Z,11.19
2022-10-05T02:09:15.806Z,10.89
2022-10-05T02:14:25.699Z,10.62
2022-10-05T02:19:43.449Z,10.39
2022-10-05T02:24:56.161Z,10.28
2022-10-05T02:30:12.797Z,10.44
2022-10-05T02:35:21.907Z,10.49
2022-10-05T02:40:29.653Z,10.35
2022-10-05T02:46:04.915Z,10.07
2022-10-05T02:51:26.918Z,9.98
2022-10-05T02:56:34.437Z,9.80
2022-10-05T03:01:40.954Z,9.73
2022-10-05T03:06:59.099Z,9.55
2022-10-05T03:12:21.331Z,9.44
2022-10-05T03:17:36.457Z,9.17
2022-10-05T03:22:53.907Z,9.12
2022-10-05T03:28:23.306Z,9.01
2022-10-05T03:34:17.510Z,8.92
2022-10-05T03:39:45.898Z,8.83
2022-10-05T03:45:07.892Z,8.71
2022-10-05T03:50:13.003Z,8.58
2022-10-05T03:55:20.846Z,8.44
2022-10-05T04:00:25.903Z,8.23
2022-10-05T04:05:49.017Z,8.21
2022-10-05T04:10:57.872Z,8.03
2022-10-05T04:16:12.543Z,8.02
2022-10-05T04:21:32.173Z,7.88
2022-10-05T04:26:46.111Z,7.79
2022-10-05T04:32:04.464Z,7.78
2022-10-05T04:37:18.824Z,7.91
2022-10-05T04:42:36.064Z,7.76
2022-10-05T04:48:19.886Z,7.60
2022-10-05T04:53:34.656Z,7.52
2022-10-05T04:59:06.380Z,7.56
2022-10-05T05:04:58.601Z,7.87
2022-10-05T05:10:26.348Z,7.88
2022-10-05T05:15:41.388Z,7.89
2022-10-05T05:21:06.540Z,8.01
2022-10-05T05:26:55.680Z,8.22
2022-10-05T05:32:21.373Z,8.54
2022-10-05T05:37:39.465Z,8.90
2022-10-05T05:43:27.731Z,9.25
2022-10-05T05:48:44.484Z,9.67
2022-10-05T05:53:58.425Z,9.93
2022-10-05T05:59:17.974Z,10.34
2022-10-05T06:04:39.990Z,10.89
2022-10-05T06:09:51.334Z,15.44
2022-10-05T06:15:16.220Z,20.73
2022-10-05T06:20:36.056Z,23.40
2022-10-05T06:26:01.372Z,24.91
2022-10-05T06:31:12.968Z,26.14
2022-10-05T06:36:46.205Z,26.70
2022-10-05T06:42:10.882Z,26.97
2022-10-05T06:48:05.805Z,27.60
2022-10-05T06:53:41.323Z,28.74
2022-10-05T06:59:12.363Z,29.21
2022-10-05T07:04:18.709Z,27.70
2022-10-05T07:09:46.611Z,28.65
2022-10-05T07:14:56.385Z,28.25
2022-10-05T07:20:22.069Z,28.67
2022-10-05T07:26:03.546Z,28.67
2022-10-05T07:31:20.701Z,28.95
2022-10-05T07:37:03.669Z,28.90
2022-10-05T07:42:48.972Z,28.79
2022-10-05T07:48:03.145Z,28.20
2022-10-05T07:53:25.171Z,26.67
2022-10-05T07:58:45.685Z,27.63
2022-10-05T08:03:53.920Z,26.95
2022-10-05T08:09:08.604Z,27.96
2022-10-05T08:14:27.978Z,26.86
2022-10-05T08:19:41.636Z,26.82
2022-10-05T08:24:59.989Z,26.28
2022-10-05T08:30:10.787Z,26.39
2022-10-05T08:35:36.598Z,26.40
2022-10-05T08:41:08.000Z,25.40
2022-10-05T08:46:48.976Z,28.38
2022-10-05T08:52:09.034Z,28.84
2022-10-05T08:58:02.499Z,27.04
2022-10-05T09:03:36.391Z,26.20
2022-10-05T09:09:07.687Z,26.49
2022-10-05T09:14:39.670Z,26.66
2022-10-05T09:20:05.406Z,25.37
2022-10-05T09:25:23.163Z,26.13
2022-10-05T09:30:51.630Z,26.66
2022-10-05T09:35:58.468Z,26.28
2022-10-05T09:41:23.400Z,26.73
2022-10-05T09:46:58.046Z,26.21
2022-10-05T09:52:18.968Z,26.13
2022-10-05T09:57:53.754Z,27.23
2022-10-05T10:03:15.813Z,26.17
2022-10-05T10:08:55.161Z,26.50
2022-10-05T10:14:14.239Z,26.47
2022-10-05T10:19:51.681Z,25.67
2022-10-05T10:25:19.606Z,24.63
2022-10-05T10:30:44.559Z,24.04
2022-10-05T10:36:18.548Z,23.35
2022-10-05T10:41:44.592Z,23.73
2022-10-05T10:47:27.553Z,25.00
2022-10-05T10:52:57.064Z,25.19
2022-10-05T10:58:24.720Z,24.95
2022-10-05T11:03:46.379Z,24.32
2022-10-05T11:09:20.404Z,25.78
2022-10-05T11:14:27.028Z,26.06
2022-10-05T11:20:02.857Z,25.84
2022-10-05T11:25:33.604Z,25.41
2022-10-05T11:31:14.515Z,23.90
2022-10-05T11:36:39.813Z,22.98
2022-10-05T11:41:52.106Z,23.24
2022-10-05T11:47:18.497Z,23.61
2022-10-05T11:52:52.276Z,24.78
2022-10-05T11:58:07.764Z,24.59
2022-10-05T12:03:39.478Z,24.54
2022-10-05T12:09:09.446Z,24.36
2022-10-05T12:14:46.438Z,24.58
2022-10-05T12:19:56.566Z,25.90
2022-10-05T12:25:19.406Z,25.94
2022-10-05T12:30:58.190Z,24.23
2022-10-05T12:36:12.680Z,23.21
2022-10-05T12:41:25.425Z,22.56
2022-10-05T12:46:47.428Z,22.29
2022-10-05T12:52:05.348Z,24.01
2022-10-05T12:57:21.804Z,23.99
2022-10-05T13:02:28.365Z,24.16
2022-10-05T13:08:04.893Z,23.83
2022-10-05T13:13:34.869Z,22.58
2022-10-05T13:19:04.605Z,22.56
2022-10-05T13:24:33.256Z,23.75
2022-10-05T13:29:54.432Z,24.39
2022-10-05T13:35:12.518Z,24.27
2022-10-05T13:40:44.815Z,22.60
2022-10-05T13:46:10.990Z,21.56
2022-10-05T13:51:28.840Z,20.39
2022-10-05T13:56:34.735Z,20.91
2022-10-05T14:02:08.614Z,20.96
2022-10-05T14:07:37.949Z,22.18
2022-10-05T14:12:44.702Z,21.08
2022-10-05T14:17:50.857Z,22.57
2022-10-05T15:07:19.349Z,21.28
2022-10-05T15:12:31.793Z,21.28
2022-10-05T15:17:44.988Z,21.24
2022-10-05T15:23:25.704Z,21.14
2022-10-05T15:28:49.094Z,21.08
2022-10-05T15:34:10.709Z,21.18
2022-10-05T15:39:36.577Z,20.96
2022-10-05T15:45:01.916Z,20.97
2022-10-05T15:50:14.977Z,19.70
2022-10-05T15:55:35.766Z,19.53
2022-10-05T16:00:49.024Z,18.93
2022-10-05T16:06:52.674Z,18.39
2022-10-05T16:12:19.125Z,17.86
2022-10-05T16:17:34.855Z,17.23
2022-10-05T16:23:05.541Z,16.85
2022-10-05T16:28:21.822Z,16.45
2022-10-05T16:34:07.144Z,16.03
2022-10-05T16:39:20.958Z,15.55
2022-10-05T16:44:36.506Z,15.35
2022-10-05T16:49:54.181Z,14.86
2022-10-05T16:55:07.154Z,14.63
2022-10-05T17:00:34.523Z,14.44
2022-10-05T17:06:08.644Z,14.21
2022-10-05T17:11:31.367Z,13.95
2022-10-05T17:17:21.004Z,13.73
2022-10-05T17:22:30.840Z,13.27
2022-10-05T17:28:26.590Z,13.28
2022-10-05T17:33:34.045Z,13.12
2022-10-05T17:39:17.416Z,12.80
2022-10-05T17:44:25.220Z,12.67
2022-10-05T17:50:16.697Z,12.58
2022-10-05T17:55:38.872Z,12.44
2022-10-05T18:01:03.207Z,12.24
2022-10-05T18:06:28.565Z,12.23
2022-10-05T18:11:33.596Z,12.08
2022-10-05T18:16:56.788Z,11.90
2022-10-05T18:22:30.807Z,11.87
2022-10-05T18:28:06.461Z,11.77
2022-10-05T18:33:33.594Z,11.64
2022-10-05T18:38:53.450Z,11.58
2022-10-05T18:44:14.917Z,11.48
2022-10-05T18:49:57.438Z,11.34
2022-10-05T18:55:11.792Z,11.26
2022-10-05T19:00:21.870Z,11.08
2022-10-05T19:05:48.950Z,11.10
2022-10-05T19:10:59.927Z,11.08
2022-10-05T19:16:32.317Z,11.02
2022-10-05T19:22:05.208Z,10.99
2022-10-05T19:27:18.414Z,10.91
2022-10-05T19:32:39.856Z,10.84
2022-10-05T19:37:57.542Z,10.80
2022-10-05T19:43:43.586Z,10.74
2022-10-05T19:48:55.737Z,10.75
2022-10-05T19:54:03.371Z,10.78
2022-10-05T19:59:19.618Z,10.73
2022-10-05T20:04:56.218Z,10.75
2022-10-05T20:10:27.874Z,10.74
2022-10-05T20:15:51.448Z,10.68
2022-10-05T20:20:56.941Z,10.60
2022-10-05T20:26:24.112Z,10.62
2022-10-05T20:31:30.841Z,10.55
2022-10-05T20:36:35.007Z,10.62
2022-10-05T20:41:38.444Z,10.58
2022-10-05T20:46:42.498Z,10.58
2022-10-05T20:51:46.557Z,10.56
2022-10-05T20:56:50.378Z,10.40
2022-10-05T21:01:54.401Z,10.47
2022-10-05T21:07:06.380Z,10.43
2022-10-05T21:12:11.168Z,10.48
2022-10-05T21:17:15.348Z,10.45
2022-10-05T21:22:18.446Z,10.38
2022-10-05T21:27:21.898Z,10.33
2022-10-05T21:32:25.737Z,10.26
2022-10-05T21:37:28.706Z,10.25
2022-10-05T21:42:33.058Z,10.29
2022-10-05T21:47:36.448Z,10.28
2022-10-05T21:52:40.259Z,10.31
2022-10-05T21:57:45.735Z,10.33
2022-10-05T22:02:49.195Z,10.55
2022-10-05T22:07:53.302Z,10.61
2022-10-05T22:13:04.043Z,10.31
2022-10-05T22:18:07.936Z,10.63
2022-10-05T22:23:11.464Z,10.62
2022-10-05T22:28:16.258Z,10.54
2022-10-05T22:33:19.377Z,10.40
2022-10-05T22:38:22.422Z,10.39
2022-10-05T22:43:29.243Z,10.45
2022-10-05T22:48:33.582Z,10.37
2022-10-05T22:53:36.974Z,10.27
2022-10-05T22:58:41.176Z,10.23
2022-10-05T23:03:45.632Z,10.24
2022-10-05T23:08:48.739Z,10.33
2022-10-05T23:13:54.235Z,10.52
2022-10-05T23:18:57.792Z,10.66
2022-10-05T23:24:00.799Z,10.57
2022-10-05T23:29:04.577Z,10.45
2022-10-05T23:34:07.980Z,10.36
2022-10-05T23:39:11.495Z,10.33
2022-10-05T23:44:15.417Z,10.24
2022-10-05T23:49:18.472Z,10.22
2022-10-05T23:54:21.979Z,10.40
2022-10-05T23:59:25.159Z,10.48
